createdAt,value
2022-12-26T00:01:03.190Z,983.7
2022-12-26T00:03:04.983Z,983.6
2022-12-26T00:05:06.360Z,983.6
2022-12-26T00:07:08.147Z,983.6
2022-12-26T00:09:09.952Z,983.5
2022-12-26T00:11:11.539Z,983.4
2022-12-26T00:13:37.727Z,983.3
2022-12-26T00:15:13.762Z,983.4
2022-12-26T00:17:14.902Z,983.4
2022-12-26T00:19:16.788Z,983.4
2022-12-26T00:21:17.746Z,983.5
2022-12-26T00:23:19.446Z,983.4
2022-12-26T00:27:22.844Z,983.4
2022-12-26T00:29:24.081Z,983.4
2022-12-26T00:31:25.523Z,983.5
2022-12-26T00:33:27.294Z,983.4
2022-12-26T00:37:29.900Z,983.5
2022-12-26T00:39:31.351Z,983.5
2022-12-26T00:43:33.647Z,983.6
2022-12-26T00:45:35.098Z,983.6
2022-12-26T00:47:36.290Z,983.6
2022-12-26T00:50:12.121Z,983.5
2022-12-26T00:51:39.534Z,983.4
2022-12-26T00:53:41.282Z,983.4
2022-12-26T00:55:42.763Z,983.3
2022-12-26T00:57:44.115Z,983.4
2022-12-26T00:59:45.104Z,983.2
2022-12-26T01:01:46.284Z,983.3
2022-12-26T01:03:47.793Z,983.3
2022-12-26T01:05:48.755Z,983.4
2022-12-26T01:08:20.895Z,983.5
2022-12-26T01:09:51.336Z,983.5
2022-12-26T01:11:52.494Z,983.6
2022-12-26T01:13:53.961Z,983.6
2022-12-26T01:15:55.821Z,983.5
2022-12-26T01:17:57.370Z,983.4
2022-12-26T01:19:58.737Z,983.3
2022-12-26T01:21:59.909Z,983.3
2022-12-26T01:24:01.220Z,983.3
2022-12-26T01:26:14.760Z,983.3
2022-12-26T01:28:04.562Z,983.2
2022-12-26T01:30:06.039Z,983.3
2022-12-26T01:32:07.271Z,983.2
2022-12-26T01:34:09.007Z,983.2
2022-12-26T01:36:10.182Z,983.3
2022-12-26T01:38:11.505Z,983.2
2022-12-26T01:42:14.999Z,983.3
2022-12-26T01:44:16.726Z,983.2
2022-12-26T01:46:17.755Z,983.2
2022-12-26T01:48:18.761Z,983.2
2022-12-26T01:50:20.177Z,983.2
2022-12-26T01:52:22.025Z,983.3
2022-12-26T01:54:38.914Z,983.3
2022-12-26T01:56:24.504Z,983.3
2022-12-26T01:58:26.060Z,983.4
2022-12-26T02:00:27.889Z,983.5
2022-12-26T02:02:29.803Z,983.5
2022-12-26T02:04:31.191Z,983.4
2022-12-26T02:06:32.847Z,983.5
2022-12-26T02:08:34.172Z,983.4
2022-12-26T02:10:35.251Z,983.5
2022-12-26T02:12:38.283Z,983.5
2022-12-26T02:14:37.583Z,983.4
2022-12-26T02:16:38.700Z,983.4
2022-12-26T02:18:39.739Z,983.4
2022-12-26T02:20:41.242Z,983.5
2022-12-26T02:22:42.812Z,983.4
2022-12-26T02:24:44.503Z,983.3
2022-12-26T02:26:46.050Z,983.3
2022-12-26T02:28:47.501Z,983.2
2022-12-26T02:30:48.779Z,983.3
2022-12-26T02:32:50.362Z,983.3
2022-12-26T02:34:51.780Z,983.3
2022-12-26T02:36:53.394Z,983.3
2022-12-26T02:38:55.216Z,983.2
2022-12-26T02:40:56.923Z,983.2
2022-12-26T02:42:58.754Z,983.2
2022-12-26T02:45:00.687Z,983.2
2022-12-26T02:47:01.708Z,983.1
2022-12-26T02:51:04.478Z,983.3
2022-12-26T02:53:06.019Z,983.3
2022-12-26T02:55:07.447Z,983.3
2022-12-26T02:57:08.816Z,983.2
2022-12-26T03:01:12.037Z,983.3
2022-12-26T03:03:13.814Z,983.3
2022-12-26T03:05:15.494Z,983.3
2022-12-26T03:07:16.973Z,983.3
2022-12-26T03:09:18.261Z,983.3
2022-12-26T03:11:19.735Z,983.3
2022-12-26T03:13:21.656Z,983.4
2022-12-26T03:15:23.078Z,983.3
2022-12-26T03:17:24.008Z,983.3
2022-12-26T03:19:25.290Z,983.3
2022-12-26T03:21:26.568Z,983.3
2022-12-26T03:23:27.918Z,983.3
2022-12-26T03:25:29.812Z,983.3
2022-12-26T03:27:31.730Z,983.3
2022-12-26T03:28:15.503Z,983.2
2022-12-26T03:30:17.389Z,983.2
2022-12-26T03:32:18.825Z,983.3
2022-12-26T03:34:20.359Z,983.2
2022-12-26T03:36:21.660Z,983.2
2022-12-26T03:38:22.706Z,983.1
2022-12-26T03:40:23.858Z,983
2022-12-26T03:44:26.760Z,983.2
2022-12-26T03:46:27.814Z,983.1
2022-12-26T03:48:29.424Z,983.3
2022-12-26T03:50:30.905Z,983.3
2022-12-26T03:52:32.331Z,983.3
2022-12-26T03:54:33.348Z,983.4
2022-12-26T03:56:34.471Z,983.5
2022-12-26T03:58:36.126Z,983.4
2022-12-26T04:00:37.365Z,983.4
2022-12-26T04:02:39.013Z,983.4
2022-12-26T04:04:40.414Z,983.5
2022-12-26T04:06:41.779Z,983.4
2022-12-26T04:08:43.694Z,983.3
2022-12-26T04:10:45.544Z,983.3
2022-12-26T04:12:47.181Z,983.2
2022-12-26T04:14:48.412Z,983.2
2022-12-26T04:16:49.988Z,983.4
2022-12-26T04:18:51.475Z,983.2
2022-12-26T04:20:53.276Z,983.4
2022-12-26T04:22:55.079Z,983.3
2022-12-26T04:24:56.264Z,983.3
2022-12-26T04:26:57.489Z,983.2
2022-12-26T04:28:59.279Z,983.2
2022-12-26T04:31:00.719Z,983.2
2022-12-26T04:33:02.411Z,983.3
2022-12-26T04:35:03.783Z,983.2
2022-12-26T04:37:05.600Z,983.2
2022-12-26T04:39:06.632Z,983.2
2022-12-26T04:43:47.856Z,983.2
2022-12-26T04:45:11.269Z,983.1
2022-12-26T04:47:12.505Z,983.1
2022-12-26T04:49:14.393Z,983.1
2022-12-26T04:51:16.052Z,983.3
2022-12-26T04:53:17.414Z,983.4
2022-12-26T04:55:18.754Z,983.3
2022-12-26T04:57:20.141Z,983.3
2022-12-26T04:59:22.031Z,983.2
2022-12-26T05:01:23.644Z,983.2
2022-12-26T05:03:24.622Z,983.2
2022-12-26T05:05:25.899Z,983.2
2022-12-26T05:07:27.271Z,983.2
2022-12-26T05:09:28.722Z,983.2
2022-12-26T05:11:30.182Z,983.3
2022-12-26T05:13:31.856Z,983.3
2022-12-26T05:15:33.010Z,983.3
2022-12-26T05:17:34.086Z,983.2
2022-12-26T05:19:35.863Z,983.3
2022-12-26T05:21:37.299Z,983.3
2022-12-26T05:23:38.358Z,983.4
2022-12-26T05:25:40.216Z,983.5
2022-12-26T05:27:41.822Z,983.4
2022-12-26T05:29:43.491Z,983.4
2022-12-26T05:31:44.635Z,983.4
2022-12-26T05:33:45.534Z,983.4
2022-12-26T05:35:46.523Z,983.4
2022-12-26T05:37:47.485Z,983.5
2022-12-26T05:39:48.408Z,983.6
2022-12-26T05:41:49.835Z,983.4
2022-12-26T05:43:51.105Z,983.5
2022-12-26T05:45:52.042Z,983.4
2022-12-26T05:47:53.331Z,983.4
2022-12-26T05:49:54.691Z,983.4
2022-12-26T05:51:55.683Z,983.4
2022-12-26T05:54:05.331Z,983.5
2022-12-26T05:55:58.406Z,983.4
2022-12-26T05:57:59.383Z,983.4
2022-12-26T06:00:00.495Z,983.4
2022-12-26T06:02:02.186Z,983.5
2022-12-26T06:04:03.609Z,983.4
2022-12-26T06:08:06.292Z,983.3
2022-12-26T06:10:07.928Z,983.4
2022-12-26T06:12:09.613Z,983.4
2022-12-26T06:14:11.490Z,983.3
2022-12-26T06:16:13.137Z,983.5
2022-12-26T06:18:14.269Z,983.5
2022-12-26T06:20:15.419Z,983.4
2022-12-26T06:22:16.634Z,983.4
2022-12-26T06:24:18.235Z,983.4
2022-12-26T06:26:19.513Z,983.4
2022-12-26T06:28:20.762Z,983.4
2022-12-26T06:30:21.905Z,983.4
2022-12-26T06:32:23.248Z,983.3
2022-12-26T06:34:24.573Z,983.4
2022-12-26T06:36:25.874Z,983.4
2022-12-26T06:38:27.402Z,983.4
2022-12-26T06:40:29.068Z,983.4
2022-12-26T06:42:30.768Z,983.5
2022-12-26T06:44:32.677Z,983.4
2022-12-26T06:46:34.305Z,983.5
2022-12-26T06:48:36.079Z,983.4
2022-12-26T06:50:37.232Z,983.4
2022-12-26T06:52:39.036Z,983.4
2022-12-26T06:54:40.384Z,983.5
2022-12-26T06:56:42.207Z,983.4
2022-12-26T06:58:43.277Z,983.5
2022-12-26T07:00:44.743Z,983.5
2022-12-26T07:02:46.616Z,983.6
2022-12-26T07:06:48.879Z,983.5
2022-12-26T07:08:50.489Z,983.8
2022-12-26T07:10:51.935Z,983.7
2022-12-26T07:12:53.001Z,983.7
2022-12-26T07:14:58.026Z,983.8
2022-12-26T07:16:55.786Z,983.8
2022-12-26T07:18:56.708Z,983.8
2022-12-26T07:20:57.602Z,983.8
2022-12-26T07:22:59.268Z,983.8
2022-12-26T07:25:00.248Z,983.9
2022-12-26T07:27:01.399Z,983.7
2022-12-26T07:29:03.180Z,983.7
2022-12-26T07:31:04.692Z,983.7
2022-12-26T07:33:06.329Z,983.7
2022-12-26T07:35:08.173Z,983.8
2022-12-26T07:37:09.676Z,983.9
2022-12-26T07:39:10.861Z,984
2022-12-26T07:41:11.793Z,984
2022-12-26T07:43:13.085Z,984.1
2022-12-26T07:45:14.262Z,984.3
2022-12-26T07:47:15.395Z,984.2
2022-12-26T07:49:16.665Z,984.2
2022-12-26T07:51:17.987Z,984.2
2022-12-26T07:53:19.746Z,984.2
2022-12-26T07:55:20.916Z,984.2
2022-12-26T07:57:47.262Z,984.3
2022-12-26T07:59:24.381Z,984.3
2022-12-26T08:01:25.650Z,984.3
2022-12-26T08:03:27.190Z,984.3
2022-12-26T08:05:28.934Z,984.2
2022-12-26T08:07:30.321Z,984.3
2022-12-26T08:09:40.913Z,984.4
2022-12-26T08:11:33.511Z,984.4
2022-12-26T08:15:36.744Z,984.3
2022-12-26T08:17:38.034Z,984.3
2022-12-26T08:19:39.553Z,984.4
2022-12-26T08:21:40.930Z,984.4
2022-12-26T08:25:43.151Z,984.4
2022-12-26T08:27:44.728Z,984.3
2022-12-26T08:29:45.683Z,984.3
2022-12-26T08:31:47.208Z,984.5
2022-12-26T08:33:48.516Z,984.3
2022-12-26T08:35:49.489Z,984.4
2022-12-26T08:37:51.309Z,984.3
2022-12-26T08:39:52.670Z,984.2
2022-12-26T08:41:54.015Z,984.4
2022-12-26T08:44:26.042Z,984.2
2022-12-26T08:45:56.012Z,984.3
2022-12-26T08:47:57.401Z,984.4
2022-12-26T08:49:58.415Z,984.3
2022-12-26T08:51:59.682Z,984.3
2022-12-26T08:54:01.375Z,984.4
2022-12-26T08:56:02.438Z,984.4
2022-12-26T08:58:04.253Z,984.5
2022-12-26T09:00:05.786Z,984.5
2022-12-26T09:02:06.845Z,984.4
2022-12-26T09:04:08.464Z,984.5
2022-12-26T09:06:09.662Z,984.5
2022-12-26T09:08:10.910Z,984.5
2022-12-26T09:10:12.754Z,984.6
2022-12-26T09:14:16.138Z,984.7
2022-12-26T09:16:17.948Z,984.9
2022-12-26T09:18:19.692Z,984.8
2022-12-26T09:20:20.989Z,985
2022-12-26T09:22:22.412Z,985
2022-12-26T09:24:23.698Z,984.9
2022-12-26T09:26:25.307Z,985
2022-12-26T09:30:28.260Z,985
2022-12-26T09:32:30.156Z,985.1
2022-12-26T09:34:31.913Z,985.1
2022-12-26T09:36:33.458Z,985.2
2022-12-26T09:40:36.458Z,985.2
2022-12-26T09:42:38.273Z,985.2
2022-12-26T09:44:39.689Z,985.2
2022-12-26T09:46:41.464Z,985.2
2022-12-26T09:48:43.358Z,985.1
2022-12-26T09:50:44.674Z,985
2022-12-26T09:52:46.536Z,985
2022-12-26T09:54:48.407Z,985
2022-12-26T09:57:04.106Z,984.9
2022-12-26T09:58:51.100Z,985
2022-12-26T10:00:52.925Z,985
2022-12-26T10:02:54.281Z,985.1
2022-12-26T10:04:56.038Z,984.9
2022-12-26T10:06:56.896Z,985
2022-12-26T10:08:58.165Z,985
2022-12-26T10:10:59.297Z,985
2022-12-26T10:13:00.700Z,984.9
2022-12-26T10:13:44.521Z,985
2022-12-26T10:15:46.384Z,984.9
2022-12-26T10:17:47.767Z,985
2022-12-26T10:19:49.068Z,985
2022-12-26T10:23:51.887Z,985.2
2022-12-26T10:25:53.765Z,985.4
2022-12-26T10:27:54.868Z,985.4
2022-12-26T10:29:56.598Z,985.6
2022-12-26T10:31:57.874Z,985.5
2022-12-26T10:33:59.780Z,985.6
2022-12-26T10:36:00.931Z,985.5
2022-12-26T10:38:01.942Z,985.5
2022-12-26T10:40:02.937Z,985.5
2022-12-26T10:42:04.688Z,985.4
2022-12-26T10:44:05.656Z,985.5
2022-12-26T10:46:07.270Z,985.4
2022-12-26T10:48:08.471Z,985.6
2022-12-26T10:50:10.073Z,985.4
2022-12-26T10:52:11.716Z,985.4
2022-12-26T10:54:12.640Z,985.4
2022-12-26T10:56:16.582Z,985.5
2022-12-26T10:58:15.959Z,985.4
2022-12-26T11:00:17.315Z,985.5
2022-12-26T11:02:18.691Z,985.5
2022-12-26T11:04:26.435Z,985.5
2022-12-26T11:06:21.231Z,985.5
2022-12-26T11:08:22.745Z,985.5
2022-12-26T11:10:24.225Z,985.7
2022-12-26T11:12:25.664Z,985.6
2022-12-26T11:14:30.229Z,985.6
2022-12-26T11:16:29.333Z,985.5
2022-12-26T11:18:30.518Z,985.5
2022-12-26T11:20:31.979Z,985.5
2022-12-26T11:22:33.341Z,985.5
2022-12-26T11:24:35.185Z,985.5
2022-12-26T11:26:36.567Z,985.4
2022-12-26T11:28:37.642Z,985.4
2022-12-26T11:30:39.456Z,985.4
2022-12-26T11:32:41.148Z,985.2
2022-12-26T11:34:42.602Z,985.2
2022-12-26T11:36:44.177Z,985.1
2022-12-26T11:38:45.709Z,985.1
2022-12-26T11:40:46.623Z,985.2
2022-12-26T11:42:48.368Z,985.4
2022-12-26T11:44:49.814Z,985.4
2022-12-26T11:46:51.776Z,985.4
2022-12-26T11:48:53.041Z,985.5
2022-12-26T11:50:54.235Z,985.4
2022-12-26T11:52:55.374Z,985.5
2022-12-26T11:54:56.798Z,985.4
2022-12-26T11:56:58.170Z,985.3
2022-12-26T11:58:59.744Z,985.3
2022-12-26T12:01:00.896Z,985.3
2022-12-26T12:05:03.794Z,985.1
2022-12-26T12:07:04.688Z,985.2
2022-12-26T12:09:06.381Z,985.2
2022-12-26T12:11:07.767Z,985.2
2022-12-26T12:13:09.225Z,985.2
2022-12-26T12:15:10.284Z,985
2022-12-26T12:17:11.608Z,985.2
2022-12-26T12:19:13.469Z,985.2
2022-12-26T12:21:14.781Z,985.2
2022-12-26T12:23:16.337Z,985.3
2022-12-26T12:25:17.426Z,985.2
2022-12-26T12:27:19.047Z,985.2
2022-12-26T12:31:22.817Z,985.2
2022-12-26T12:33:24.118Z,985.2
2022-12-26T12:35:26.026Z,985.1
2022-12-26T12:37:27.617Z,985
2022-12-26T12:41:30.411Z,985
2022-12-26T12:43:31.764Z,985
2022-12-26T12:45:33.761Z,985.1
2022-12-26T12:47:35.428Z,985
2022-12-26T12:49:37.065Z,985
2022-12-26T12:51:38.595Z,985
2022-12-26T12:53:40.292Z,985
2022-12-26T12:55:41.726Z,985.2
2022-12-26T12:57:42.795Z,985.1
2022-12-26T12:59:43.954Z,985.1
2022-12-26T13:01:45.677Z,985
2022-12-26T13:03:47.106Z,985.1
2022-12-26T13:05:48.055Z,985.1
2022-12-26T13:07:49.224Z,985.1
2022-12-26T13:09:51.050Z,985.1
2022-12-26T13:11:52.359Z,985.1
2022-12-26T13:13:54.222Z,985.1
2022-12-26T13:15:55.692Z,985
2022-12-26T13:17:56.694Z,985.1
2022-12-26T13:20:01.686Z,985
2022-12-26T13:22:00.158Z,985
2022-12-26T13:24:01.789Z,985.1
2022-12-26T13:26:04.864Z,985.1
2022-12-26T13:30:06.409Z,985.1
2022-12-26T13:32:07.671Z,985.1
2022-12-26T13:34:09.038Z,985.1
2022-12-26T13:36:10.143Z,985.1
2022-12-26T13:38:11.240Z,985.1
2022-12-26T13:40:12.892Z,984.9
2022-12-26T13:42:14.418Z,985
2022-12-26T13:44:15.634Z,985.1
2022-12-26T13:46:17.000Z,985
2022-12-26T13:48:18.525Z,985
2022-12-26T13:50:19.852Z,985
2022-12-26T13:52:21.235Z,985
2022-12-26T13:54:22.193Z,985
2022-12-26T13:56:23.109Z,985.1
2022-12-26T13:58:24.934Z,985.1
2022-12-26T14:00:26.008Z,985
2022-12-26T14:02:42.802Z,985
2022-12-26T14:04:29.269Z,985.1
2022-12-26T14:06:30.198Z,985.1
2022-12-26T14:08:32.152Z,985
2022-12-26T14:10:33.167Z,985
2022-12-26T14:12:35.023Z,985
2022-12-26T14:14:36.173Z,985.1
2022-12-26T14:16:37.960Z,985.1
2022-12-26T14:18:39.754Z,985
2022-12-26T14:20:41.282Z,985
2022-12-26T14:22:43.102Z,985
2022-12-26T14:24:44.853Z,985
2022-12-26T14:28:47.110Z,985
2022-12-26T14:30:48.765Z,985.1
2022-12-26T14:32:50.282Z,985.1
2022-12-26T14:34:52.146Z,985.1
2022-12-26T14:36:53.520Z,985.1
2022-12-26T14:38:55.058Z,985
2022-12-26T14:40:56.427Z,985.1
2022-12-26T14:42:57.926Z,985
2022-12-26T14:44:59.703Z,984.9
2022-12-26T14:47:01.329Z,985
2022-12-26T14:49:02.387Z,985
2022-12-26T14:51:03.666Z,985
2022-12-26T14:53:05.471Z,984.9
2022-12-26T14:55:06.988Z,984.9
2022-12-26T14:57:08.018Z,984.7
2022-12-26T14:59:09.738Z,984.7
2022-12-26T15:01:11.243Z,984.7
2022-12-26T15:03:12.411Z,984.7
2022-12-26T15:05:14.187Z,984.8
2022-12-26T15:07:20.284Z,984.6
2022-12-26T15:11:18.792Z,984.7
2022-12-26T15:13:20.523Z,984.6
2022-12-26T15:15:21.485Z,984.6
2022-12-26T15:17:22.690Z,984.8
2022-12-26T15:19:23.643Z,984.9
2022-12-26T15:21:25.259Z,984.9
2022-12-26T15:23:27.021Z,984.9
2022-12-26T15:25:28.464Z,984.8
2022-12-26T15:27:29.465Z,984.8
2022-12-26T15:29:30.591Z,984.9
2022-12-26T15:31:32.417Z,984.9
2022-12-26T15:33:33.653Z,984.9
2022-12-26T15:37:36.460Z,984.9
2022-12-26T15:39:37.500Z,984.9
2022-12-26T15:41:38.961Z,985.1
2022-12-26T15:43:40.814Z,985.1
2022-12-26T15:47:44.272Z,985
2022-12-26T15:49:46.130Z,985.1
2022-12-26T15:51:50.970Z,985.1
2022-12-26T15:53:49.109Z,985
2022-12-26T15:55:50.397Z,985
2022-12-26T15:57:51.745Z,985.1
2022-12-26T15:59:53.601Z,985
2022-12-26T16:01:54.947Z,985
2022-12-26T16:03:56.714Z,985.1
2022-12-26T16:05:57.994Z,985.1
2022-12-26T16:07:59.287Z,985
2022-12-26T16:10:00.376Z,985
2022-12-26T16:12:01.938Z,985
2022-12-26T16:14:03.789Z,985
2022-12-26T16:16:05.608Z,985
2022-12-26T16:18:06.592Z,985
2022-12-26T16:20:08.454Z,985
2022-12-26T16:22:10.024Z,985
2022-12-26T16:24:11.055Z,985
2022-12-26T16:26:12.260Z,985
2022-12-26T16:30:15.567Z,984.9
2022-12-26T16:32:16.924Z,984.9
2022-12-26T16:34:18.112Z,984.8
2022-12-26T16:36:19.901Z,984.8
2022-12-26T16:38:20.950Z,984.8
2022-12-26T16:40:22.680Z,984.8
2022-12-26T16:42:24.467Z,984.7
2022-12-26T16:44:30.206Z,984.9
2022-12-26T16:46:26.763Z,984.9
2022-12-26T16:48:27.909Z,984.9
2022-12-26T16:50:29.371Z,984.9
2022-12-26T16:52:30.419Z,984.8
2022-12-26T16:54:31.825Z,984.9
2022-12-26T16:56:33.171Z,984.8
2022-12-26T16:58:34.812Z,984.8
2022-12-26T16:59:18.634Z,984.7
2022-12-26T17:01:19.969Z,984.8
2022-12-26T17:03:21.016Z,984.7
2022-12-26T17:05:22.362Z,984.7
2022-12-26T17:07:24.058Z,984.6
2022-12-26T17:09:25.164Z,984.4
2022-12-26T17:11:26.174Z,984.5
2022-12-26T17:13:27.921Z,984.3
2022-12-26T17:15:29.252Z,984.4
2022-12-26T17:17:31.002Z,984.4
2022-12-26T17:19:32.095Z,984.5
2022-12-26T17:21:33.492Z,984.5
2022-12-26T17:23:34.825Z,984.4
2022-12-26T17:25:35.806Z,984.7
2022-12-26T17:29:38.486Z,984.7
2022-12-26T17:31:40.202Z,984.8
2022-12-26T17:33:47.651Z,984.6
2022-12-26T17:36:33.210Z,984.7
2022-12-26T17:37:44.633Z,984.7
2022-12-26T17:39:46.387Z,984.9
2022-12-26T17:41:48.042Z,984.9
2022-12-26T17:43:48.974Z,984.9
2022-12-26T17:45:50.792Z,985
2022-12-26T17:47:52.265Z,985
2022-12-26T17:49:53.823Z,985
2022-12-26T17:52:00.004Z,985
2022-12-26T17:55:57.629Z,985.3
2022-12-26T17:57:59.053Z,985.3
2022-12-26T18:00:00.212Z,985.6
2022-12-26T18:02:01.854Z,985.6
2022-12-26T18:06:04.677Z,985.7
2022-12-26T18:08:06.502Z,985.8
2022-12-26T18:10:08.065Z,985.8
2022-12-26T18:12:09.877Z,985.8
2022-12-26T18:14:10.858Z,985.8
2022-12-26T18:16:12.156Z,985.7
2022-12-26T18:18:13.344Z,985.8
2022-12-26T18:20:14.611Z,985.8
2022-12-26T18:22:16.525Z,985.9
2022-12-26T18:24:18.424Z,986
2022-12-26T18:26:20.366Z,986
2022-12-26T18:28:21.483Z,986
2022-12-26T18:30:22.555Z,986.1
2022-12-26T18:32:23.763Z,986.2
2022-12-26T18:34:25.082Z,986.1
2022-12-26T18:38:27.841Z,986.2
2022-12-26T18:40:29.229Z,986.2
2022-12-26T18:42:30.664Z,986.3
2022-12-26T18:44:31.803Z,986.5
2022-12-26T18:48:34.155Z,986.5
2022-12-26T18:50:35.181Z,986.6
2022-12-26T18:54:37.613Z,986.5
2022-12-26T18:56:39.349Z,986.5
2022-12-26T18:58:41.197Z,986.5
2022-12-26T19:00:42.211Z,986.6
2022-12-26T19:02:43.972Z,986.6
2022-12-26T19:04:45.583Z,986.5
2022-12-26T19:06:47.264Z,986.6
2022-12-26T19:08:48.406Z,986.6
2022-12-26T19:10:50.002Z,986.6
2022-12-26T19:12:51.251Z,986.7
2022-12-26T19:14:52.843Z,986.7
2022-12-26T19:16:53.918Z,986.7
2022-12-26T19:18:55.849Z,986.7
2022-12-26T19:20:57.061Z,986.8
2022-12-26T19:22:58.709Z,986.8
2022-12-26T19:25:00.090Z,986.8
2022-12-26T19:27:01.861Z,986.5
2022-12-26T19:29:03.645Z,986.4
2022-12-26T19:31:04.625Z,986.4
2022-12-26T19:33:05.608Z,986.4
2022-12-26T19:37:07.778Z,986.4
2022-12-26T19:39:09.176Z,986.4
2022-12-26T19:41:10.858Z,986.6
2022-12-26T19:43:12.434Z,986.7
2022-12-26T19:45:13.711Z,986.6
2022-12-26T19:47:15.580Z,986.7
2022-12-26T19:49:17.281Z,986.7
2022-12-26T19:51:18.808Z,986.8
2022-12-26T19:53:20.265Z,986.9
2022-12-26T19:55:21.381Z,986.9
2022-12-26T19:57:23.150Z,987.1
2022-12-26T19:59:24.136Z,987.2
2022-12-26T20:01:25.801Z,987.1
2022-12-26T20:03:27.567Z,987.1
2022-12-26T20:05:29.085Z,987.2
2022-12-26T20:07:30.560Z,987.2
2022-12-26T20:09:31.541Z,987.2
2022-12-26T20:11:33.005Z,987.3
2022-12-26T20:13:34.203Z,987.4
2022-12-26T20:15:35.842Z,987.3
2022-12-26T20:17:36.921Z,987.5
2022-12-26T20:19:38.386Z,987.5
2022-12-26T20:21:40.079Z,987.5
2022-12-26T20:23:41.961Z,987.6
2022-12-26T20:25:43.171Z,987.5
2022-12-26T20:27:44.653Z,987.6
2022-12-26T20:29:45.898Z,987.5
2022-12-26T20:31:47.490Z,987.6
2022-12-26T20:35:50.202Z,987.7
2022-12-26T20:37:51.912Z,987.7
2022-12-26T20:39:53.378Z,987.8
2022-12-26T20:41:54.777Z,987.8
2022-12-26T20:43:56.527Z,987.9
2022-12-26T20:46:00.724Z,987.9
2022-12-26T20:48:00.110Z,987.8
2022-12-26T20:50:01.831Z,988
2022-12-26T20:52:03.110Z,988
2022-12-26T20:54:04.849Z,988
2022-12-26T20:56:05.937Z,988.1
2022-12-26T20:58:07.211Z,988.1
2022-12-26T21:00:08.169Z,988.1
2022-12-26T21:02:10.055Z,988.1
2022-12-26T21:04:11.127Z,988.1
2022-12-26T21:06:12.814Z,988.2
2022-12-26T21:08:14.657Z,988.2
2022-12-26T21:10:16.215Z,988.2
2022-12-26T21:12:17.727Z,988.3
2022-12-26T21:14:19.150Z,988.2
2022-12-26T21:16:20.474Z,988.2
2022-12-26T21:18:21.942Z,988.3
2022-12-26T21:20:23.011Z,988.3
2022-12-26T21:22:24.095Z,988.3
2022-12-26T21:24:25.230Z,988.4
2022-12-26T21:26:26.461Z,988.5
2022-12-26T21:28:27.562Z,988.6
2022-12-26T21:30:29.052Z,988.6
2022-12-26T21:32:30.450Z,988.6
2022-12-26T21:34:40.465Z,988.6
2022-12-26T21:36:32.571Z,988.7
2022-12-26T21:38:33.843Z,988.8
2022-12-26T21:40:35.154Z,988.8
2022-12-26T21:42:36.487Z,988.9
2022-12-26T21:44:37.666Z,988.9
2022-12-26T21:46:39.603Z,988.9
2022-12-26T21:48:41.224Z,988.9
2022-12-26T21:50:42.759Z,989.1
2022-12-26T21:54:48.965Z,989
2022-12-26T21:56:47.332Z,989.1
2022-12-26T22:00:50.134Z,989.5
2022-12-26T22:02:51.498Z,989.6
2022-12-26T22:04:53.025Z,989.5
2022-12-26T22:06:54.148Z,989.7
2022-12-26T22:08:55.623Z,990
2022-12-26T22:10:56.607Z,990
2022-12-26T22:12:57.780Z,990.1
2022-12-26T22:14:58.938Z,990
2022-12-26T22:17:00.307Z,990.1
2022-12-26T22:19:02.059Z,990.1
2022-12-26T22:21:03.203Z,990.2
2022-12-26T22:23:04.719Z,990.1
2022-12-26T22:25:06.259Z,990.2
2022-12-26T22:27:07.948Z,990.3
2022-12-26T22:29:09.871Z,990.2
2022-12-26T22:31:11.837Z,990.3
2022-12-26T22:33:13.355Z,990.3
2022-12-26T22:35:18.520Z,990.4
2022-12-26T22:37:16.485Z,990.4
2022-12-26T22:39:18.467Z,990.4
2022-12-26T22:43:21.378Z,990.7
2022-12-26T22:45:22.923Z,990.7
2022-12-26T22:47:24.221Z,990.7
2022-12-26T22:49:25.777Z,990.7
2022-12-26T22:51:27.127Z,990.8
2022-12-26T22:53:28.661Z,990.9
2022-12-26T22:55:30.184Z,990.9
2022-12-26T22:57:32.016Z,990.9
2022-12-26T22:59:57.756Z,990.9
2022-12-26T23:01:35.384Z,991
2022-12-26T23:03:36.908Z,991
2022-12-26T23:05:38.017Z,991.1
2022-12-26T23:07:39.724Z,991.2
2022-12-26T23:09:40.835Z,991.1
2022-12-26T23:11:42.193Z,991.1
2022-12-26T23:13:43.893Z,991.2
2022-12-26T23:15:45.646Z,991.2
2022-12-26T23:17:47.058Z,991.1
2022-12-26T23:19:48.716Z,991.2
2022-12-26T23:21:49.978Z,991.3
2022-12-26T23:23:51.095Z,991.4
2022-12-26T23:25:52.236Z,991.4
2022-12-26T23:27:53.778Z,991.4
2022-12-26T23:29:55.416Z,991.4
2022-12-26T23:31:56.936Z,991.4
2022-12-26T23:33:58.409Z,991.3
2022-12-26T23:35:59.918Z,991.5
2022-12-26T23:38:01.900Z,991.4
2022-12-26T23:42:05.449Z,991.5
2022-12-26T23:44:07.219Z,991.5
2022-12-26T23:44:51.118Z,991.5
2022-12-26T23:46:52.595Z,991.6
2022-12-26T23:48:53.891Z,991.6
2022-12-26T23:50:55.507Z,991.7
2022-12-26T23:52:57.004Z,991.6
2022-12-26T23:54:58.290Z,991.8
2022-12-26T23:56:59.464Z,991.7
2022-12-26T23:59:01.479Z,991.9
